Terminal Aerodrome Forecast
Issued by NWS

Home | Current Version | Previous Version | Text Only | Print | Product List | Glossary On
Versions: 1 2 3 4 5 6 7 8 9 10 11 12
000
FTUS43 KOAX 222335
TAFCDR
TAF
KCDR 222335Z 2300/2324 02007KT P6SM SKC
     FM230800 32012G18KT P6SM BKN080
     FM231700 33014G24KT P6SM SCT080=

USA.gov is the U.S. government's official web portal to all federal, state and local government web resources and services.